Volgo-balt 229 — UHZF — position and weather

sailwx.info

Track history (hours):
 
Tides and Currents Weather Stations Pressure Air Temp Water Temp Dewpoint Dewpoint Depression Visibility Wind Speed Wind Dir Waves Ship Positions

Volgo-balt 229

Last reported at 2016-May-20 04:21 UTC. Time now 2016-May-30 10:40 UTC.
Position N 59°46' E 030°46'.
Warning: this ship's position is 10 days out of date.

Length 113 m; draft 2.6 m.

Type: Ship. MMSI: 273336300.

Date/timePositionNaut miles runAvg speedWind from/ knotsBaromVisibWave heightAir tempDewpointWater temp
2016-May-20 04:21N 59°46' E 030°46'4 4.4
2016-May-20 03:29N 59°47' E 030°39'4 4.0
2016-May-20 02:33N 59°50' E 030°34'4 4.0
2016-May-20 01:33N 59°53' E 030°27'4 3.7
2016-May-20 00:33N 59°56' E 030°24'0 0.0
2016-May-19 23:33N 59°56' E 030°24'3 3.1
2016-May-19 22:33N 59°56' E 030°17'0 0.2
2016-May-19 21:31N 59°56' E 030°17'0 0.0
2016-May-19 20:31N 59°56' E 030°17'0 0.0
2016-May-19 19:31N 59°56' E 030°17'0 0.0
2016-May-19 18:31N 59°56' E 030°17'0 0.0
2016-May-19 17:31N 59°56' E 030°17'0 0.0
2016-May-19 16:31N 59°56' E 030°17'0 0.0
2016-May-19 15:31N 59°56' E 030°17'0 0.0
2016-May-19 14:31N 59°56' E 030°17'0 0.0
2016-May-19 13:31N 59°56' E 030°17'0 0.0
2016-May-19 12:31N 59°56' E 030°17'0 0.0
2016-May-19 11:31N 59°56' E 030°17'0 0.0
2016-May-19 10:31N 59°56' E 030°17'1 1.5
2016-May-19 09:33N 59°55' E 030°15'0 0.2
2016-May-19 08:31N 59°55' E 030°14'0 0.0
2016-May-19 07:31N 59°55' E 030°14'1 0.7
2016-May-19 06:33N 59°55' E 030°13'7 7.1
2016-May-19 05:33N 59°55' E 029°59'8 8.3
2016-May-19 04:33N 59°59' E 029°44'31 7.9
2016-May-19 00:33N 60°02' E 028°41'8 8.1
2016-May-18 23:32N 60°03' E 028°25'7 7.5
2016-May-18 22:33N 60°07' E 028°13'8 7.9
2016-May-18 21:33N 60°09' E 027°57'7 7.4
2016-May-18 20:33N 60°09' E 027°42'10 8.1
2016-May-18 19:22N 60°04' E 027°26'7 8.2
2016-May-18 18:33N 60°01' E 027°15'8 7.7
2016-May-18 17:33N 59°58' E 027°00'8 7.7
2016-May-18 16:33N 59°59' E 026°45'8 7.5
2016-May-18 15:33N 59°58' E 026°30'8 7.7
2016-May-18 14:33N 59°56' E 026°15'23 7.4
2016-May-18 11:27N 59°49' E 025°31'7 7.2
2016-May-18 10:32N 59°48' E 025°19'61 7.6
2016-May-18 02:31N 59°27' E 023°25'249 8.0
2016-May-16 19:32N 57°15' E 016°43'8 7.7
2016-May-16 18:33N 57°09' E 016°34'2 0.1
2016-May-16 03:30N 57°10' E 016°37'1 0.5
2016-May-16 02:16N 57°09' E 016°36'0 0.0
2016-May-16 01:31N 57°09' E 016°36'0 0.0
2016-May-16 00:31N 57°09' E 016°36'0 0.0
2016-May-15 23:28N 57°09' E 016°36'0 0.0
2016-May-15 22:28N 57°09' E 016°36'0 0.0
2016-May-15 21:28N 57°09' E 016°36'0 0.0
2016-May-15 20:13N 57°09' E 016°36'0 0.0
2016-May-15 18:22N 57°09' E 016°36'0 0.0
2016-May-15 17:31N 57°09' E 016°36'0 0.0
2016-May-15 16:31N 57°09' E 016°36'0 0.0
2016-May-15 15:31N 57°09' E 016°36'0 0.0
2016-May-15 14:31N 57°09' E 016°36'0 0.0
2016-May-15 13:31N 57°09' E 016°36'0 0.0
2016-May-15 12:31N 57°09' E 016°36'0 0.0
2016-May-15 11:31N 57°09' E 016°36'0 0.0
2016-May-15 10:25N 57°09' E 016°36'0 0.0
2016-May-15 09:28N 57°09' E 016°36'0 0.0
2016-May-15 08:28N 57°09' E 016°36'0 0.0
2016-May-15 07:31N 57°09' E 016°36'0 0.0
2016-May-15 06:31N 57°09' E 016°36'0 0.0
2016-May-15 05:31N 57°09' E 016°36'0 0.0
2016-May-15 04:31N 57°09' E 016°36'0 0.0
2016-May-15 03:19N 57°09' E 016°36'0 0.0
2016-May-15 01:23N 57°09' E 016°36'0 0.0
2016-May-14 23:15N 57°09' E 016°36'0 0.0
2016-May-14 22:33N 57°09' E 016°36'0 0.0
2016-May-14 21:30N 57°09' E 016°36'0 0.0
2016-May-14 17:33N 57°09' E 016°36'0 0.0
2016-May-14 16:33N 57°09' E 016°36'0 0.0
2016-May-14 14:30N 57°09' E 016°36'0 0.0
2016-May-14 13:30N 57°09' E 016°36'0 0.0
2016-May-14 12:24N 57°09' E 016°36'0 0.0
2016-May-14 11:30N 57°09' E 016°36'0 0.0
2016-May-14 10:15N 57°09' E 016°36'0 0.0
2016-May-14 09:33N 57°09' E 016°36'0 0.0
2016-May-14 05:26N 57°09' E 016°36'0 0.0
2016-May-14 04:23N 57°09' E 016°36'0 0.0
2016-May-14 03:26N 57°09' E 016°36'1 1.5
2016-May-14 02:33N 57°11' E 016°37'229 8.1
2016-May-12 22:15N 59°28' E 022°27'22 7.9
2016-May-12 19:29N 59°35' E 023°08'8 8.4
2016-May-12 18:33N 59°37' E 023°23'8 8.4
2016-May-12 17:33N 59°40' E 023°39'9 8.1
2016-May-12 16:30N 59°42' E 023°55'8 8.2
2016-May-12 15:33N 59°45' E 024°10'61 8.3
2016-May-12 08:12N 59°58' E 026°08'6 8.4
2016-May-12 07:29N 59°60' E 026°20'8 8.2
2016-May-12 06:34N 60°02' E 026°34'23 7.7
2016-May-12 03:32N 60°05' E 027°21'8 8.3
2016-May-12 02:34N 60°09' E 027°34'15 7.6
2016-May-12 00:33N 60°10' E 028°05'8 7.8
2016-May-11 23:33N 60°07' E 028°20'8 7.6
2016-May-11 22:33N 60°03' E 028°33'8 8.1
2016-May-11 21:33N 60°03' E 028°49'8 7.9
2016-May-11 20:33N 60°02' E 029°05'16 8.1
2016-May-11 18:31N 60°00' E 029°38'8 8.1
2016-May-11 17:32N 59°57' E 029°53'9 7.8
2016-May-11 16:25N 59°54' E 030°09'3 3.0
2016-May-11 15:32N 59°54' E 030°14'0 0.0
2016-May-11 14:32N 59°54' E 030°14'0 0.0
2016-May-11 13:32N 59°54' E 030°14'0 0.0
2016-May-11 12:32N 59°54' E 030°14'0 0.0
2016-May-11 11:31N 59°54' E 030°14'0 0.0
2016-May-11 10:25N 59°54' E 030°14'0 0.0
2016-May-11 09:31N 59°54' E 030°14'0 0.0
2016-May-11 08:28N 59°54' E 030°14'0 0.0
2016-May-11 07:31N 59°54' E 030°14'0 0.0
2016-May-11 06:31N 59°54' E 030°14'0 0.0
2016-May-11 05:31N 59°54' E 030°14'0 0.0
2016-May-11 04:31N 59°54' E 030°14'0 0.0
2016-May-11 03:31N 59°54' E 030°14'0 0.0
2016-May-11 02:31N 59°54' E 030°14'0 0.2
2016-May-11 01:33N 59°54' E 030°14'6 5.5
2016-May-11 00:33N 59°57' E 030°24'7 7.1
2016-May-10 23:33N 59°50' E 030°31'0 0.2
2016-May-10 22:23N 59°50' E 030°31'0 0.0
2016-May-10 21:11N 59°50' E 030°31'0 0.0
2016-May-10 20:32N 59°50' E 030°31'0 0.0
2016-May-10 19:32N 59°50' E 030°31'0 0.0
2016-May-10 18:23N 59°50' E 030°31'0 0.0
2016-May-10 17:29N 59°50' E 030°31'0 0.0
2016-May-10 16:29N 59°50' E 030°31'0 0.0
2016-May-10 15:29N 59°50' E 030°31'0 0.0
2016-May-10 14:17N 59°50' E 030°31'0 0.0
2016-May-10 13:32N 59°50' E 030°31'0 0.0
2016-May-10 12:29N 59°50' E 030°31'0 0.0
2016-May-10 11:32N 59°50' E 030°31'0 0.0
2016-May-10 10:08N 59°50' E 030°31'0 0.0
2016-May-10 09:20N 59°50' E 030°31'0 0.0
2016-May-10 08:20N 59°50' E 030°31'0 0.0
2016-May-10 07:32N 59°50' E 030°31'0 0.0
2016-May-10 06:32N 59°50' E 030°31'0 0.0
2016-May-10 05:26N 59°50' E 030°31'0 0.0
2016-May-10 04:26N 59°50' E 030°31'  
Track history (hours):
 
Tides and Currents Weather Stations Pressure Air Temp Water Temp Dewpoint Dewpoint Depression Visibility Wind Speed Wind Dir Waves Ship Positions

Volgo-balt 229

Last reported at 2016-May-20 04:21 UTC. Time now 2016-May-30 10:40 UTC.
Position N 59°46' E 030°46'.
Warning: this ship's position is 10 days out of date.

Length 113 m; draft 2.6 m.

Type: Ship. MMSI: 273336300.

Date/timePositionNaut miles runAvg speedWind from/ knotsBaromVisibWave heightAir tempDewpointWater temp
2016-May-20 04:21N 59°46' E 030°46'4 4.4
2016-May-20 03:29N 59°47' E 030°39'4 4.0
2016-May-20 02:33N 59°50' E 030°34'4 4.0
2016-May-20 01:33N 59°53' E 030°27'4 3.7
2016-May-20 00:33N 59°56' E 030°24'0 0.0
2016-May-19 23:33N 59°56' E 030°24'3 3.1
2016-May-19 22:33N 59°56' E 030°17'0 0.2
2016-May-19 21:31N 59°56' E 030°17'0 0.0
2016-May-19 20:31N 59°56' E 030°17'0 0.0
2016-May-19 19:31N 59°56' E 030°17'0 0.0
2016-May-19 18:31N 59°56' E 030°17'0 0.0
2016-May-19 17:31N 59°56' E 030°17'0 0.0
2016-May-19 16:31N 59°56' E 030°17'0 0.0
2016-May-19 15:31N 59°56' E 030°17'0 0.0
2016-May-19 14:31N 59°56' E 030°17'0 0.0
2016-May-19 13:31N 59°56' E 030°17'0 0.0
2016-May-19 12:31N 59°56' E 030°17'0 0.0
2016-May-19 11:31N 59°56' E 030°17'0 0.0
2016-May-19 10:31N 59°56' E 030°17'1 1.5
2016-May-19 09:33N 59°55' E 030°15'0 0.2
2016-May-19 08:31N 59°55' E 030°14'0 0.0
2016-May-19 07:31N 59°55' E 030°14'1 0.7
2016-May-19 06:33N 59°55' E 030°13'7 7.1
2016-May-19 05:33N 59°55' E 029°59'8 8.3
2016-May-19 04:33N 59°59' E 029°44'31 7.9
2016-May-19 00:33N 60°02' E 028°41'8 8.1
2016-May-18 23:32N 60°03' E 028°25'7 7.5
2016-May-18 22:33N 60°07' E 028°13'8 7.9
2016-May-18 21:33N 60°09' E 027°57'7 7.4
2016-May-18 20:33N 60°09' E 027°42'10 8.1
2016-May-18 19:22N 60°04' E 027°26'7 8.2
2016-May-18 18:33N 60°01' E 027°15'8 7.7
2016-May-18 17:33N 59°58' E 027°00'8 7.7
2016-May-18 16:33N 59°59' E 026°45'8 7.5
2016-May-18 15:33N 59°58' E 026°30'8 7.7
2016-May-18 14:33N 59°56' E 026°15'23 7.4
2016-May-18 11:27N 59°49' E 025°31'7 7.2
2016-May-18 10:32N 59°48' E 025°19'61 7.6
2016-May-18 02:31N 59°27' E 023°25'249 8.0
2016-May-16 19:32N 57°15' E 016°43'8 7.7
2016-May-16 18:33N 57°09' E 016°34'2 0.1
2016-May-16 03:30N 57°10' E 016°37'1 0.5
2016-May-16 02:16N 57°09' E 016°36'0 0.0
2016-May-16 01:31N 57°09' E 016°36'0 0.0
2016-May-16 00:31N 57°09' E 016°36'0 0.0
2016-May-15 23:28N 57°09' E 016°36'0 0.0
2016-May-15 22:28N 57°09' E 016°36'0 0.0
2016-May-15 21:28N 57°09' E 016°36'0 0.0
2016-May-15 20:13N 57°09' E 016°36'0 0.0
2016-May-15 18:22N 57°09' E 016°36'0 0.0
2016-May-15 17:31N 57°09' E 016°36'0 0.0
2016-May-15 16:31N 57°09' E 016°36'0 0.0
2016-May-15 15:31N 57°09' E 016°36'0 0.0
2016-May-15 14:31N 57°09' E 016°36'0 0.0
2016-May-15 13:31N 57°09' E 016°36'0 0.0
2016-May-15 12:31N 57°09' E 016°36'0 0.0
2016-May-15 11:31N 57°09' E 016°36'0 0.0
2016-May-15 10:25N 57°09' E 016°36'0 0.0
2016-May-15 09:28N 57°09' E 016°36'0 0.0
2016-May-15 08:28N 57°09' E 016°36'0 0.0
2016-May-15 07:31N 57°09' E 016°36'0 0.0
2016-May-15 06:31N 57°09' E 016°36'0 0.0
2016-May-15 05:31N 57°09' E 016°36'0 0.0
2016-May-15 04:31N 57°09' E 016°36'0 0.0
2016-May-15 03:19N 57°09' E 016°36'0 0.0
2016-May-15 01:23N 57°09' E 016°36'0 0.0
2016-May-14 23:15N 57°09' E 016°36'0 0.0
2016-May-14 22:33N 57°09' E 016°36'0 0.0
2016-May-14 21:30N 57°09' E 016°36'0 0.0
2016-May-14 17:33N 57°09' E 016°36'0 0.0
2016-May-14 16:33N 57°09' E 016°36'0 0.0
2016-May-14 14:30N 57°09' E 016°36'0 0.0
2016-May-14 13:30N 57°09' E 016°36'0 0.0
2016-May-14 12:24N 57°09' E 016°36'0 0.0
2016-May-14 11:30N 57°09' E 016°36'0 0.0
2016-May-14 10:15N 57°09' E 016°36'0 0.0
2016-May-14 09:33N 57°09' E 016°36'0 0.0
2016-May-14 05:26N 57°09' E 016°36'0 0.0
2016-May-14 04:23N 57°09' E 016°36'0 0.0
2016-May-14 03:26N 57°09' E 016°36'1 1.5
2016-May-14 02:33N 57°11' E 016°37'229 8.1
2016-May-12 22:15N 59°28' E 022°27'22 7.9
2016-May-12 19:29N 59°35' E 023°08'8 8.4
2016-May-12 18:33N 59°37' E 023°23'8 8.4
2016-May-12 17:33N 59°40' E 023°39'9 8.1
2016-May-12 16:30N 59°42' E 023°55'8 8.2
2016-May-12 15:33N 59°45' E 024°10'61 8.3
2016-May-12 08:12N 59°58' E 026°08'6 8.4
2016-May-12 07:29N 59°60' E 026°20'8 8.2
2016-May-12 06:34N 60°02' E 026°34'23 7.7
2016-May-12 03:32N 60°05' E 027°21'8 8.3
2016-May-12 02:34N 60°09' E 027°34'15 7.6
2016-May-12 00:33N 60°10' E 028°05'8 7.8
2016-May-11 23:33N 60°07' E 028°20'8 7.6
2016-May-11 22:33N 60°03' E 028°33'8 8.1
2016-May-11 21:33N 60°03' E 028°49'8 7.9
2016-May-11 20:33N 60°02' E 029°05'16 8.1
2016-May-11 18:31N 60°00' E 029°38'8 8.1
2016-May-11 17:32N 59°57' E 029°53'9 7.8
2016-May-11 16:25N 59°54' E 030°09'3 3.0
2016-May-11 15:32N 59°54' E 030°14'0 0.0
2016-May-11 14:32N 59°54' E 030°14'0 0.0
2016-May-11 13:32N 59°54' E 030°14'0 0.0
2016-May-11 12:32N 59°54' E 030°14'0 0.0
2016-May-11 11:31N 59°54' E 030°14'0 0.0
2016-May-11 10:25N 59°54' E 030°14'0 0.0
2016-May-11 09:31N 59°54' E 030°14'0 0.0
2016-May-11 08:28N 59°54' E 030°14'0 0.0
2016-May-11 07:31N 59°54' E 030°14'0 0.0
2016-May-11 06:31N 59°54' E 030°14'0 0.0
2016-May-11 05:31N 59°54' E 030°14'0 0.0
2016-May-11 04:31N 59°54' E 030°14'0 0.0
2016-May-11 03:31N 59°54' E 030°14'0 0.0
2016-May-11 02:31N 59°54' E 030°14'0 0.2
2016-May-11 01:33N 59°54' E 030°14'6 5.5
2016-May-11 00:33N 59°57' E 030°24'7 7.1
2016-May-10 23:33N 59°50' E 030°31'0 0.2
2016-May-10 22:23N 59°50' E 030°31'0 0.0
2016-May-10 21:11N 59°50' E 030°31'0 0.0
2016-May-10 20:32N 59°50' E 030°31'0 0.0
2016-May-10 19:32N 59°50' E 030°31'0 0.0
2016-May-10 18:23N 59°50' E 030°31'0 0.0
2016-May-10 17:29N 59°50' E 030°31'0 0.0
2016-May-10 16:29N 59°50' E 030°31'0 0.0
2016-May-10 15:29N 59°50' E 030°31'0 0.0
2016-May-10 14:17N 59°50' E 030°31'0 0.0
2016-May-10 13:32N 59°50' E 030°31'0 0.0
2016-May-10 12:29N 59°50' E 030°31'0 0.0
2016-May-10 11:32N 59°50' E 030°31'0 0.0
2016-May-10 10:08N 59°50' E 030°31'0 0.0
2016-May-10 09:20N 59°50' E 030°31'0 0.0
2016-May-10 08:20N 59°50' E 030°31'0 0.0
2016-May-10 07:32N 59°50' E 030°31'0 0.0
2016-May-10 06:32N 59°50' E 030°31'0 0.0
2016-May-10 05:26N 59°50' E 030°31'0 0.0
2016-May-10 04:26N 59°50' E 030°31'  

Dump ship's entire track history